createdAt,value
2022-11-08T00:02:27.899Z,0.83
2022-11-08T00:04:57.222Z,1.00
2022-11-08T00:07:42.387Z,1.03
2022-11-08T00:10:28.469Z,1.00
2022-11-08T00:13:13.721Z,0.90
2022-11-08T00:15:41.587Z,0.90
2022-11-08T00:18:09.464Z,0.87
2022-11-08T00:20:38.737Z,0.90
2022-11-08T00:23:06.603Z,0.80
2022-11-08T00:25:34.528Z,0.43
2022-11-08T00:28:02.382Z,0.80
2022-11-08T00:30:31.062Z,0.60
2022-11-08T00:32:58.922Z,0.80
2022-11-08T00:35:26.820Z,0.80
2022-11-08T00:37:56.073Z,0.83
2022-11-08T00:40:23.938Z,1.00
2022-11-08T00:42:51.847Z,1.10
2022-11-08T00:45:20.181Z,1.00
2022-11-08T00:47:48.379Z,1.20
2022-11-08T00:50:16.408Z,1.20
2022-11-08T00:52:44.389Z,1.20
2022-11-08T00:55:13.677Z,0.90
2022-11-08T00:57:58.333Z,0.90
2022-11-08T01:00:27.299Z,1.10
2022-11-08T01:03:15.292Z,0.90
2022-11-08T01:05:43.155Z,0.83
2022-11-08T01:08:11.380Z,0.97
2022-11-08T01:10:41.938Z,1.00
2022-11-08T01:13:09.862Z,1.20
2022-11-08T01:15:38.044Z,0.93
2022-11-08T01:18:06.080Z,1.20
2022-11-08T01:20:34.020Z,1.23
2022-11-08T01:23:01.903Z,1.37
2022-11-08T01:25:29.779Z,1.20
2022-11-08T01:27:59.029Z,1.53
2022-11-08T01:30:26.904Z,0.93
2022-11-08T01:32:54.839Z,1.20
2022-11-08T01:35:22.715Z,1.30
2022-11-08T01:37:51.357Z,1.20
2022-11-08T01:40:19.428Z,1.00
2022-11-08T01:42:47.279Z,1.10
2022-11-08T01:45:16.654Z,1.17
2022-11-08T01:47:44.656Z,1.27
2022-11-08T01:50:13.250Z,1.50
2022-11-08T01:52:41.947Z,1.90
2022-11-08T01:55:12.913Z,1.17
2022-11-08T01:57:44.667Z,1.57
2022-11-08T02:00:13.579Z,1.67
2022-11-08T02:02:43.982Z,1.40
2022-11-08T02:05:25.090Z,1.43
2022-11-08T02:07:58.840Z,1.37
2022-11-08T02:10:29.665Z,2.10
2022-11-08T02:12:57.533Z,1.30
2022-11-08T02:15:25.768Z,2.00
2022-11-08T02:17:55.116Z,1.47
2022-11-08T02:20:23.010Z,2.00
2022-11-08T02:22:53.719Z,1.87
2022-11-08T02:25:22.960Z,1.90
2022-11-08T02:27:50.829Z,2.40
2022-11-08T02:30:18.744Z,1.90
2022-11-08T02:32:47.225Z,2.30
2022-11-08T02:35:16.494Z,1.50
2022-11-08T02:37:44.396Z,1.90
2022-11-08T02:40:12.731Z,1.80
2022-11-08T02:42:41.987Z,2.50
2022-11-08T02:45:10.547Z,1.73
2022-11-08T02:47:38.393Z,2.37
2022-11-08T02:50:07.309Z,1.93
2022-11-08T02:52:35.145Z,2.17
2022-11-08T02:55:03.116Z,2.03
2022-11-08T02:57:32.879Z,2.40
2022-11-08T03:00:02.171Z,2.60
2022-11-08T03:02:30.118Z,2.10
2022-11-08T03:04:58.067Z,2.60
2022-11-08T03:07:26.012Z,2.33
2022-11-08T03:09:54.187Z,2.47
2022-11-08T03:12:22.071Z,2.50
2022-11-08T03:14:49.955Z,1.97
2022-11-08T03:17:19.273Z,2.40
2022-11-08T03:19:47.307Z,3.07
2022-11-08T03:22:15.153Z,2.70
2022-11-08T03:24:43.080Z,3.40
2022-11-08T03:27:10.948Z,3.00
2022-11-08T03:29:38.809Z,2.83
2022-11-08T03:32:06.788Z,2.90
2022-11-08T03:34:36.536Z,2.37
2022-11-08T03:37:05.814Z,2.57
2022-11-08T03:39:33.693Z,3.00
2022-11-08T03:42:03.226Z,2.30
2022-11-08T03:44:31.104Z,2.43
2022-11-08T03:46:58.992Z,3.03
2022-11-08T03:49:26.835Z,2.40
2022-11-08T03:51:56.205Z,3.10
2022-11-08T03:54:24.051Z,3.43
2022-11-08T03:56:51.939Z,2.47
2022-11-08T03:59:19.804Z,3.23
2022-11-08T04:01:47.822Z,2.90
2022-11-08T04:04:15.787Z,3.20
2022-11-08T04:06:43.659Z,2.97
2022-11-08T04:09:15.529Z,2.77
2022-11-08T04:12:02.714Z,2.87
2022-11-08T04:14:48.220Z,3.20
2022-11-08T04:17:16.080Z,3.30
2022-11-08T04:20:01.426Z,2.70
2022-11-08T04:22:29.298Z,3.50
2022-11-08T04:24:58.564Z,3.47
2022-11-08T04:27:26.452Z,2.87
2022-11-08T04:29:54.310Z,3.03
2022-11-08T04:32:22.218Z,3.00
2022-11-08T04:34:50.072Z,2.80
2022-11-08T04:37:17.935Z,3.10
2022-11-08T04:39:45.792Z,2.90
2022-11-08T04:42:15.035Z,3.23
2022-11-08T04:44:42.920Z,3.20
2022-11-08T04:47:11.206Z,2.63
2022-11-08T04:49:39.670Z,3.13
2022-11-08T04:52:08.651Z,2.23
2022-11-08T04:54:36.509Z,3.90
2022-11-08T04:57:04.455Z,2.33
2022-11-08T04:59:33.680Z,4.30
2022-11-08T05:02:01.689Z,2.80
2022-11-08T05:04:29.694Z,3.13
2022-11-08T05:06:57.632Z,3.47
2022-11-08T05:09:25.479Z,2.90
2022-11-08T05:11:53.361Z,2.80
2022-11-08T05:14:21.303Z,2.27
2022-11-08T05:16:51.023Z,3.53
2022-11-08T05:19:39.160Z,2.87
2022-11-08T05:22:24.453Z,3.23
2022-11-08T05:24:52.338Z,3.33
2022-11-08T05:27:20.220Z,3.17
2022-11-08T05:29:48.117Z,2.80
2022-11-08T05:32:17.397Z,4.10
2022-11-08T05:34:45.260Z,3.13
2022-11-08T05:37:13.128Z,3.17
2022-11-08T05:39:41.028Z,3.70
2022-11-08T05:42:08.889Z,4.03
2022-11-08T05:44:36.744Z,2.77
2022-11-08T05:47:04.855Z,3.13
2022-11-08T05:49:34.295Z,3.40
2022-11-08T05:52:02.288Z,3.73
2022-11-08T05:54:30.204Z,3.50
2022-11-08T05:56:58.047Z,3.60
2022-11-08T05:59:25.961Z,3.13
2022-11-08T06:01:53.924Z,2.80
2022-11-08T06:04:21.860Z,4.00
2022-11-08T06:06:52.299Z,2.87
2022-11-08T06:09:20.253Z,3.10
2022-11-08T06:11:48.139Z,3.43
2022-11-08T06:14:16.035Z,2.80
2022-11-08T06:16:43.911Z,2.70
2022-11-08T06:19:11.788Z,3.60
2022-11-08T06:21:39.680Z,2.73
2022-11-08T06:24:09.675Z,3.10
2022-11-08T06:26:37.625Z,2.60
2022-11-08T06:29:05.554Z,2.57
2022-11-08T06:31:33.409Z,2.80
2022-11-08T06:34:01.271Z,2.17
2022-11-08T06:36:29.198Z,2.10
2022-11-08T06:38:57.147Z,2.00
2022-11-08T06:41:27.309Z,2.27
2022-11-08T06:43:55.928Z,2.80
2022-11-08T06:46:23.779Z,3.07
2022-11-08T06:48:51.899Z,3.00
2022-11-08T06:51:19.864Z,2.33
2022-11-08T06:53:47.743Z,3.13
2022-11-08T06:56:15.644Z,3.03
2022-11-08T06:58:44.889Z,2.87
2022-11-08T07:01:13.723Z,2.87
2022-11-08T07:03:41.700Z,2.97
2022-11-08T07:06:09.966Z,3.27
2022-11-08T07:08:37.957Z,2.30
2022-11-08T07:11:06.689Z,2.80
2022-11-08T07:13:34.575Z,3.20
2022-11-08T07:16:03.840Z,2.97
2022-11-08T07:18:31.845Z,3.27
2022-11-08T07:21:01.569Z,2.63
2022-11-08T07:23:30.192Z,2.60
2022-11-08T07:26:00.713Z,2.30
2022-11-08T07:28:29.181Z,2.57
2022-11-08T07:30:59.055Z,2.80
2022-11-08T07:33:28.367Z,2.90
2022-11-08T07:35:56.399Z,2.40
2022-11-08T07:38:26.059Z,3.23
2022-11-08T07:40:56.792Z,2.33
2022-11-08T07:43:24.969Z,2.77
2022-11-08T07:45:55.044Z,2.80
2022-11-08T07:48:23.002Z,2.47
2022-11-08T07:50:52.247Z,2.43
2022-11-08T07:53:20.472Z,2.77
2022-11-08T07:55:49.159Z,2.97
2022-11-08T07:58:17.152Z,3.23
2022-11-08T08:00:45.503Z,2.63
2022-11-08T08:03:14.355Z,2.63
2022-11-08T08:05:42.886Z,3.03
2022-11-08T08:08:12.719Z,2.80
2022-11-08T08:10:40.946Z,2.37
2022-11-08T08:13:08.888Z,2.40
2022-11-08T08:15:36.803Z,2.50
2022-11-08T08:18:05.655Z,3.00
2022-11-08T08:20:33.603Z,2.30
2022-11-08T08:23:01.558Z,2.80
2022-11-08T08:25:31.619Z,2.67
2022-11-08T08:28:00.907Z,2.50
2022-11-08T08:30:29.029Z,2.57
2022-11-08T08:33:26.963Z,3.07
2022-11-08T08:35:52.804Z,2.77
2022-11-08T08:38:20.700Z,2.20
2022-11-08T08:40:50.048Z,3.03
2022-11-08T08:43:18.238Z,2.20
2022-11-08T08:45:46.420Z,2.13
2022-11-08T08:48:14.293Z,2.53
2022-11-08T08:50:42.206Z,3.03
2022-11-08T08:53:10.989Z,2.40
2022-11-08T08:55:39.414Z,2.57
2022-11-08T08:58:08.680Z,2.83
2022-11-08T09:03:24.586Z,2.10
2022-11-08T09:05:52.605Z,2.37
2022-11-08T09:08:20.573Z,2.53
2022-11-08T09:10:48.534Z,1.67
2022-11-08T09:13:18.119Z,1.53
2022-11-08T09:15:46.232Z,1.40
2022-11-08T09:18:14.140Z,1.57
2022-11-08T09:20:43.887Z,1.20
2022-11-08T09:23:12.047Z,1.37
2022-11-08T09:25:39.974Z,1.30
2022-11-08T09:28:07.897Z,1.50
2022-11-08T09:30:37.284Z,1.53
2022-11-08T09:33:05.351Z,1.60
2022-11-08T09:35:33.544Z,1.30
2022-11-08T09:38:01.579Z,1.03
2022-11-08T09:40:32.384Z,1.20
2022-11-08T09:43:08.001Z,1.40
2022-11-08T09:45:37.966Z,1.30
2022-11-08T09:48:06.900Z,1.53
2022-11-08T09:50:38.578Z,1.20
2022-11-08T09:53:16.436Z,1.10
2022-11-08T09:55:46.074Z,1.47
2022-11-08T09:58:35.533Z,1.73
2022-11-08T10:01:05.068Z,1.23
2022-11-08T10:03:32.946Z,1.57
2022-11-08T10:06:14.967Z,1.60
2022-11-08T10:08:46.994Z,1.00
2022-11-08T10:11:21.125Z,1.63
2022-11-08T10:13:56.755Z,1.10
2022-11-08T10:16:30.384Z,1.60
2022-11-08T10:19:07.490Z,1.70
2022-11-08T10:21:56.724Z,1.47
2022-11-08T10:24:32.847Z,1.87
2022-11-08T10:27:00.748Z,1.80
2022-11-08T10:29:30.228Z,2.23
2022-11-08T10:32:01.313Z,1.70
2022-11-08T10:34:30.361Z,1.90
2022-11-08T10:37:01.607Z,1.50
2022-11-08T10:39:29.739Z,1.53
2022-11-08T10:42:00.055Z,2.13
2022-11-08T10:44:28.024Z,1.30
2022-11-08T10:47:00.971Z,1.50
2022-11-08T10:49:30.420Z,1.40
2022-11-08T10:51:59.463Z,1.67
2022-11-08T10:54:44.268Z,1.17
2022-11-08T10:57:13.197Z,1.23
2022-11-08T10:59:41.093Z,1.20
2022-11-08T11:02:29.169Z,1.30
2022-11-08T11:05:21.995Z,1.20
2022-11-08T11:08:02.939Z,1.33
2022-11-08T11:10:31.772Z,1.00
2022-11-08T11:13:02.664Z,1.30
2022-11-08T11:15:38.119Z,0.73
2022-11-08T11:18:18.732Z,1.03
2022-11-08T11:20:59.104Z,0.87
2022-11-08T11:23:34.099Z,1.00
2022-11-08T11:26:02.049Z,1.33
2022-11-08T11:28:29.951Z,1.13
2022-11-08T11:31:00.979Z,1.20
2022-11-08T11:33:31.055Z,1.67
2022-11-08T11:35:59.743Z,1.00
2022-11-08T11:38:34.037Z,0.83
2022-11-08T11:41:08.334Z,1.23
2022-11-08T11:43:42.647Z,1.40
2022-11-08T11:46:14.717Z,1.00
2022-11-08T11:48:47.035Z,0.90
2022-11-08T11:51:14.927Z,0.93
2022-11-08T11:53:48.459Z,1.07
2022-11-08T11:56:27.409Z,1.07
2022-11-08T11:59:08.497Z,1.17
2022-11-08T12:01:54.236Z,0.97
2022-11-08T12:04:33.624Z,1.37
2022-11-08T12:07:05.354Z,0.97
2022-11-08T12:09:42.683Z,1.10
2022-11-08T12:12:17.872Z,1.30
2022-11-08T12:14:51.330Z,1.40
2022-11-08T12:17:35.828Z,1.37
2022-11-08T12:20:20.408Z,1.40
2022-11-08T12:22:57.025Z,1.30
2022-11-08T12:25:26.036Z,1.17
2022-11-08T12:27:54.855Z,1.67
2022-11-08T12:30:25.663Z,1.70
2022-11-08T12:33:11.569Z,1.60
2022-11-08T12:35:44.360Z,1.60
2022-11-08T12:38:25.094Z,1.57
2022-11-08T12:40:55.730Z,1.40
2022-11-08T12:43:35.236Z,1.47
2022-11-08T12:46:10.335Z,1.57
2022-11-08T12:48:50.816Z,1.90
2022-11-08T12:51:22.573Z,1.50
2022-11-08T12:53:59.943Z,1.17
2022-11-08T12:56:29.835Z,1.30
2022-11-08T12:58:57.725Z,1.10
2022-11-08T13:01:25.699Z,1.03
2022-11-08T13:04:27.092Z,1.20
2022-11-08T13:06:58.975Z,1.00
2022-11-08T13:09:36.139Z,1.00
2022-11-08T13:12:08.349Z,1.17
2022-11-08T13:14:41.107Z,1.10
2022-11-08T13:17:18.093Z,1.10
2022-11-08T13:20:05.655Z,1.30
2022-11-08T13:22:47.731Z,1.30
2022-11-08T13:25:43.939Z,1.30
2022-11-08T13:28:40.531Z,1.38
2022-11-08T13:31:30.555Z,1.38
2022-11-08T13:34:12.246Z,1.27
2022-11-08T13:36:47.147Z,1.27
2022-11-08T13:39:33.845Z,1.15
2022-11-08T13:42:03.452Z,1.10
2022-11-08T13:44:57.799Z,1.52
2022-11-08T13:47:53.406Z,1.10
2022-11-08T13:50:45.861Z,1.25
2022-11-08T13:53:39.621Z,1.52
2022-11-08T13:56:26.487Z,1.40
2022-11-08T13:58:54.406Z,1.38
2022-11-08T14:01:57.117Z,1.73
2022-11-08T14:04:25.646Z,1.63
2022-11-08T14:06:58.198Z,1.60
2022-11-08T14:09:33.212Z,1.30
2022-11-08T14:12:03.973Z,1.45
2022-11-08T14:14:39.867Z,1.65
2022-11-08T14:17:40.746Z,2.03
2022-11-08T14:20:18.280Z,1.80
2022-11-08T14:22:50.212Z,1.80
2022-11-08T14:25:20.153Z,1.50
2022-11-08T14:27:49.534Z,1.67
2022-11-08T14:30:18.628Z,1.80
2022-11-08T14:32:46.533Z,1.80
2022-11-08T14:35:21.187Z,1.10
2022-11-08T14:37:49.116Z,1.70
2022-11-08T14:40:19.011Z,1.43
2022-11-08T14:42:46.882Z,1.73
2022-11-08T14:45:16.487Z,2.00
2022-11-08T14:47:44.486Z,1.80
2022-11-08T14:50:19.320Z,1.70
2022-11-08T14:52:47.257Z,1.80
2022-11-08T14:55:16.482Z,1.60
2022-11-08T14:57:44.916Z,2.10
2022-11-08T15:00:18.985Z,1.80
2022-11-08T15:02:48.278Z,2.10
2022-11-08T15:05:30.468Z,2.03
2022-11-08T15:07:58.709Z,2.43
2022-11-08T15:10:26.744Z,2.23
2022-11-08T15:12:54.700Z,2.30
2022-11-08T15:15:25.783Z,2.07
2022-11-08T15:18:12.444Z,2.53
2022-11-08T15:20:40.561Z,2.20
2022-11-08T15:23:43.417Z,2.00
2022-11-08T15:26:22.424Z,1.90
2022-11-08T15:29:06.919Z,2.00
2022-11-08T15:31:38.879Z,1.93
2022-11-08T15:34:06.824Z,2.23
2022-11-08T15:36:37.495Z,2.10
2022-11-08T15:39:11.816Z,2.40
2022-11-08T15:41:40.605Z,2.47
2022-11-08T15:44:26.098Z,2.00
2022-11-08T15:46:55.614Z,2.50
2022-11-08T15:49:26.122Z,2.10
2022-11-08T15:51:54.646Z,2.20
2022-11-08T15:54:23.258Z,2.30
2022-11-08T15:56:51.671Z,2.13
2022-11-08T15:59:22.147Z,3.00
2022-11-08T16:01:52.451Z,2.83
2022-11-08T16:04:21.751Z,2.43
2022-11-08T16:06:49.805Z,2.43
2022-11-08T16:09:17.791Z,2.23
2022-11-08T16:11:45.981Z,2.73
2022-11-08T16:14:16.246Z,2.10
2022-11-08T16:16:44.134Z,1.87
2022-11-08T16:19:18.556Z,2.83
2022-11-08T16:21:47.864Z,2.33
2022-11-08T16:24:15.749Z,2.73
2022-11-08T16:26:43.870Z,2.70
2022-11-08T16:29:17.889Z,3.43
2022-11-08T16:31:45.818Z,2.77
2022-11-08T16:34:13.696Z,2.47
2022-11-08T16:36:41.590Z,2.80
2022-11-08T16:39:14.773Z,2.40
2022-11-08T16:41:43.033Z,2.63
2022-11-08T16:44:11.325Z,3.20
2022-11-08T16:46:39.259Z,2.33
2022-11-08T16:49:07.529Z,2.47
2022-11-08T16:51:35.441Z,2.23
2022-11-08T16:54:03.898Z,2.50
2022-11-08T16:56:33.193Z,1.97
2022-11-08T16:59:01.047Z,3.10
2022-11-08T17:01:31.977Z,3.07
2022-11-08T17:03:59.914Z,2.23
2022-11-08T17:06:27.836Z,3.30
2022-11-08T17:08:55.859Z,3.30
2022-11-08T17:11:24.153Z,2.83
2022-11-08T17:13:53.714Z,4.37
2022-11-08T17:16:21.598Z,3.47
2022-11-08T17:18:53.064Z,2.83
2022-11-08T17:24:09.670Z,2.73
2022-11-08T17:26:37.755Z,2.93
2022-11-08T17:29:08.155Z,2.80
2022-11-08T17:31:36.055Z,2.20
2022-11-08T17:34:03.964Z,3.13
2022-11-08T17:36:31.824Z,2.83
2022-11-08T17:38:59.782Z,2.67
2022-11-08T17:41:27.842Z,1.90
2022-11-08T17:43:55.776Z,2.90
2022-11-08T17:46:25.037Z,3.07
2022-11-08T17:48:53.237Z,2.40
2022-11-08T17:51:21.251Z,3.67
2022-11-08T17:53:49.150Z,2.00
2022-11-08T17:56:17.453Z,2.77
2022-11-08T17:58:45.316Z,2.37
2022-11-08T18:01:13.351Z,3.03
2022-11-08T18:03:42.788Z,3.90
2022-11-08T18:06:12.424Z,2.43
2022-11-08T18:08:40.470Z,3.00
2022-11-08T18:11:08.406Z,3.67
2022-11-08T18:13:36.321Z,4.03
2022-11-08T18:16:08.192Z,4.03
2022-11-08T18:18:36.109Z,3.47
2022-11-08T18:21:05.442Z,4.00
2022-11-08T18:23:33.326Z,4.33
2022-11-08T18:26:01.513Z,4.03
2022-11-08T18:28:29.452Z,4.67
2022-11-08T18:30:57.391Z,3.70
2022-11-08T18:33:25.294Z,3.53
2022-11-08T18:35:53.149Z,4.67
2022-11-08T18:38:22.430Z,6.40
2022-11-08T18:40:50.364Z,5.53
2022-11-08T18:43:18.639Z,4.30
2022-11-08T18:45:46.792Z,4.23
2022-11-08T18:48:14.721Z,4.10
2022-11-08T18:50:42.698Z,2.47
2022-11-08T18:53:10.590Z,3.63
2022-11-08T18:55:39.871Z,3.87
2022-11-08T18:58:08.357Z,2.80
2022-11-08T19:00:36.223Z,3.37
2022-11-08T19:03:04.170Z,3.77
2022-11-08T19:05:32.072Z,3.60
2022-11-08T19:07:59.975Z,3.13
2022-11-08T19:10:27.891Z,3.17
2022-11-08T19:12:57.184Z,3.20
2022-11-08T19:15:27.218Z,4.30
2022-11-08T19:17:55.123Z,4.20
2022-11-08T19:20:24.046Z,4.73
2022-11-08T19:22:54.547Z,4.17
2022-11-08T19:25:22.427Z,3.40
2022-11-08T19:27:50.321Z,3.90
2022-11-08T19:30:19.987Z,2.97
2022-11-08T19:32:47.982Z,3.57
2022-11-08T19:35:19.006Z,3.47
2022-11-08T19:37:46.912Z,2.47
2022-11-08T19:40:15.539Z,3.53
2022-11-08T19:42:43.481Z,1.90
2022-11-08T19:45:11.883Z,3.23
2022-11-08T19:47:41.254Z,3.90
2022-11-08T19:50:09.505Z,3.33
2022-11-08T19:52:37.419Z,2.40
2022-11-08T19:55:07.109Z,3.70
2022-11-08T19:57:35.727Z,3.33
2022-11-08T20:00:04.699Z,4.20
2022-11-08T20:02:32.695Z,4.07
2022-11-08T20:05:01.981Z,3.00
2022-11-08T20:07:29.851Z,2.97
2022-11-08T20:09:57.871Z,3.73
2022-11-08T20:12:25.843Z,3.80
2022-11-08T20:14:53.880Z,3.93
2022-11-08T20:17:21.912Z,2.77
2022-11-08T20:19:51.862Z,3.50
2022-11-08T20:22:21.125Z,3.03
2022-11-08T20:24:49.076Z,3.23
2022-11-08T20:27:16.963Z,3.70
2022-11-08T20:29:47.869Z,3.50
2022-11-08T20:32:15.803Z,2.87
2022-11-08T20:34:43.751Z,2.40
2022-11-08T20:37:14.405Z,3.60
2022-11-08T20:39:44.082Z,2.47
2022-11-08T20:42:12.367Z,4.30
2022-11-08T20:44:40.244Z,3.53
2022-11-08T20:47:08.741Z,3.43
2022-11-08T20:49:36.764Z,3.93
2022-11-08T20:52:04.639Z,4.10
2022-11-08T20:54:32.540Z,4.70
2022-11-08T20:57:01.876Z,4.87
2022-11-08T20:59:29.935Z,4.23
2022-11-08T21:01:57.841Z,3.93
2022-11-08T21:04:25.941Z,3.57
2022-11-08T21:07:39.663Z,3.53
2022-11-08T21:09:49.727Z,3.80
2022-11-08T21:12:20.169Z,4.20
2022-11-08T21:14:48.547Z,3.57
2022-11-08T21:17:21.806Z,3.50
2022-11-08T21:19:51.809Z,3.00
2022-11-08T21:22:19.876Z,3.83
2022-11-08T21:24:48.980Z,3.17
2022-11-08T21:27:17.074Z,3.40
2022-11-08T21:29:46.309Z,3.57
2022-11-08T21:32:14.526Z,3.93
2022-11-08T21:34:45.958Z,3.27
2022-11-08T21:37:14.733Z,3.93
2022-11-08T21:39:42.744Z,3.67
2022-11-08T21:42:10.801Z,3.37
2022-11-08T21:44:38.914Z,3.27
2022-11-08T21:47:08.300Z,3.20
2022-11-08T21:49:36.332Z,3.03
2022-11-08T21:52:04.717Z,2.93
2022-11-08T21:54:32.624Z,2.70
2022-11-08T21:57:00.593Z,3.13
2022-11-08T21:59:28.558Z,3.33
2022-11-08T22:01:56.498Z,3.07
2022-11-08T22:04:33.659Z,3.00
2022-11-08T22:07:01.947Z,2.33
2022-11-08T22:09:30.489Z,2.47
2022-11-08T22:11:58.453Z,2.90
2022-11-08T22:14:26.362Z,2.43
2022-11-08T22:16:54.294Z,2.57
2022-11-08T22:19:22.232Z,2.53
2022-11-08T22:21:51.618Z,2.97
2022-11-08T22:24:20.433Z,2.30
2022-11-08T22:26:48.648Z,3.23
2022-11-08T22:29:17.150Z,2.90
2022-11-08T22:31:45.195Z,2.60
2022-11-08T22:34:13.083Z,2.63
2022-11-08T22:36:44.822Z,2.40
2022-11-08T22:39:15.043Z,3.00
2022-11-08T22:41:43.220Z,3.00
2022-11-08T22:44:12.265Z,2.53
2022-11-08T22:46:40.956Z,2.57
2022-11-08T22:49:08.922Z,2.33
2022-11-08T22:51:36.890Z,2.57
2022-11-08T22:54:05.120Z,2.90
2022-11-08T22:56:35.219Z,2.73
2022-11-08T22:59:03.385Z,3.40
2022-11-08T23:01:31.316Z,3.47
2022-11-08T23:03:59.208Z,2.53
2022-11-08T23:06:27.168Z,2.97
2022-11-08T23:08:55.254Z,3.23
2022-11-08T23:11:40.549Z,3.73
2022-11-08T23:14:32.442Z,2.30
2022-11-08T23:17:04.583Z,2.80
2022-11-08T23:19:49.825Z,2.70
2022-11-08T23:22:35.718Z,2.60
2022-11-08T23:25:03.631Z,2.80
2022-11-08T23:27:49.578Z,2.67
2022-11-08T23:30:36.651Z,2.60
2022-11-08T23:33:04.999Z,2.70
2022-11-08T23:35:32.901Z,2.33
2022-11-08T23:38:00.751Z,2.40
2022-11-08T23:40:46.284Z,2.53
2022-11-08T23:43:32.200Z,2.53
2022-11-08T23:46:07.485Z,2.73
2022-11-08T23:48:35.383Z,2.13
2022-11-08T23:51:03.234Z,2.47
2022-11-08T23:53:31.129Z,2.07
2022-11-08T23:55:59.230Z,1.97
2022-11-08T23:58:29.745Z,2.30
